Time;durP1;ratioP1;P1;durP2;ratioP2;P2;SDS_P1;SDS_P2;PMS_P1;PMS_P2;Temp;Humidity;BMP_temperature;BMP_pressure;BME280_temperature;BME280_humidity;BME280_pressure;Samples;Min_cycle;Max_cycle;Signal;HPM_P1;HPM_P2
2024/01/18 00:01:29;;;;;;;3.92;2.47;;;;;;;7.08;nan;99066.00;4984855;28;20531;-66
2024/01/18 00:03:55;;;;;;;3.20;2.13;;;;;;;7.10;nan;99056.88;4987174;28;20026;-68
2024/01/18 00:06:20;;;;;;;4.85;2.25;;;;;;;7.07;nan;99038.25;4985974;28;20026;-67
2024/01/18 00:08:46;;;;;;;3.97;2.08;;;;;;;7.15;nan;99045.69;4985785;28;20030;-68
2024/01/18 00:11:11;;;;;;;4.28;2.03;;;;;;;7.16;nan;99042.84;4985703;28;20593;-67
2024/01/18 00:13:37;;;;;;;4.03;2.38;;;;;;;7.20;nan;99036.09;4987346;28;20030;-66
2024/01/18 00:16:03;;;;;;;3.75;2.05;;;;;;;7.24;nan;99039.06;4986459;28;20030;-69
2024/01/18 00:18:28;;;;;;;3.83;2.20;;;;;;;7.28;nan;99044.59;4988915;28;20617;-68
2024/01/18 00:20:54;;;;;;;3.63;2.17;;;;;;;7.30;nan;99035.47;4970578;28;20093;-66
2024/01/18 00:23:19;;;;;;;3.20;2.20;;;;;;;7.37;nan;99043.19;4987516;28;20030;-68
2024/01/18 00:25:44;;;;;;;4.20;1.98;;;;;;;7.30;nan;99027.63;4985502;28;20034;-69
2024/01/18 00:28:10;;;;;;;4.10;2.33;;;;;;;7.40;nan;99040.91;4969559;28;20049;-68
2024/01/18 00:30:37;;;;;;;3.33;2.17;;;;;;;7.45;nan;99040.19;4987045;28;20552;-68
2024/01/18 00:33:03;;;;;;;4.80;2.20;;;;;;;7.40;nan;99025.19;4970321;28;20528;-68
2024/01/18 00:35:28;;;;;;;3.78;2.17;;;;;;;7.48;nan;99033.69;4987166;28;20038;-68
2024/01/18 00:37:54;;;;;;;3.97;2.20;;;;;;;7.43;nan;99014.22;4987059;28;20033;-68
2024/01/18 00:40:19;;;;;;;3.63;2.00;;;;;;;7.53;nan;99023.28;4962846;28;20045;-68
2024/01/18 00:42:44;;;;;;;3.97;2.00;;;;;;;7.49;nan;99014.31;4988044;28;20165;-68
2024/01/18 00:45:10;;;;;;;4.43;2.10;;;;;;;7.57;nan;99021.78;4985876;28;20488;-68
2024/01/18 00:47:35;;;;;;;5.32;2.83;;;;;;;7.55;nan;99024.63;4986244;28;20100;-68
2024/01/18 00:50:01;;;;;;;4.40;2.00;;;;;;;7.56;nan;99020.19;4986211;28;20057;-67
2024/01/18 00:52:26;;;;;;;4.32;2.10;;;;;;;7.48;nan;99005.66;4987662;28;20377;-68
2024/01/18 00:54:52;;;;;;;3.20;2.03;;;;;;;7.47;nan;99006.69;4986171;28;20484;-68
2024/01/18 00:57:17;;;;;;;2.50;1.98;;;;;;;7.52;nan;99006.78;4968962;28;20025;-69
2024/01/18 00:59:42;;;;;;;3.22;2.22;;;;;;;7.49;nan;99017.72;4986871;28;20055;-70
2024/01/18 01:02:08;;;;;;;4.25;2.28;;;;;;;7.35;nan;98983.22;4985898;28;20392;-69
2024/01/18 01:04:34;;;;;;;3.25;2.05;;;;;;;7.43;nan;98992.47;4986038;28;20531;-69
2024/01/18 01:07:00;;;;;;;3.70;2.10;;;;;;;7.46;nan;98998.03;4986937;28;20023;-70
2024/01/18 01:09:25;;;;;;;3.42;2.10;;;;;;;7.44;nan;98994.84;4984528;28;20478;-69
2024/01/18 01:11:52;;;;;;;5.03;2.40;;;;;;;7.41;nan;98989.31;4987387;28;20138;-69
2024/01/18 01:14:17;;;;;;;3.15;2.10;;;;;;;7.39;nan;98989.53;4984125;28;20033;-69
2024/01/18 01:16:43;;;;;;;4.70;2.30;;;;;;;7.41;nan;99003.19;4987067;28;20489;-69
2024/01/18 01:19:08;;;;;;;3.28;2.20;;;;;;;7.38;nan;99003.69;4984585;28;20034;-68
2024/01/18 01:21:34;;;;;;;4.15;2.13;;;;;;;7.37;nan;98990.81;4987277;28;20717;-68
2024/01/18 01:23:59;;;;;;;4.57;2.45;;;;;;;7.35;nan;99003.34;4986513;28;20026;-68
2024/01/18 01:26:25;;;;;;;3.78;2.17;;;;;;;7.26;nan;98984.63;4968257;28;20121;-68
2024/01/18 01:28:50;;;;;;;4.35;2.40;;;;;;;7.28;nan;98982.56;4986404;28;20018;-68
2024/01/18 01:31:16;;;;;;;6.07;2.15;;;;;;;7.27;nan;98980.97;4988193;28;20028;-68
2024/01/18 01:33:44;;;;;;;4.75;2.30;;;;;;;7.18;nan;98971.91;4991293;28;20497;-68
2024/01/18 01:36:10;;;;;;;4.78;2.42;;;;;;;7.19;nan;98978.75;4987749;28;20127;-68
2024/01/18 01:38:35;;;;;;;4.35;2.70;;;;;;;7.18;nan;98974.53;4986128;28;20062;-68
2024/01/18 01:41:02;;;;;;;3.75;2.20;;;;;;;7.15;nan;98967.16;4969838;28;20469;-68
2024/01/18 01:43:28;;;;;;;4.15;2.22;;;;;;;7.11;nan;98950.34;4990038;28;20029;-68
2024/01/18 01:45:53;;;;;;;4.50;2.13;;;;;;;7.07;nan;98944.00;4989856;28;20024;-68
2024/01/18 01:48:19;;;;;;;5.30;2.33;;;;;;;7.08;nan;98941.13;4988338;28;20034;-68
2024/01/18 01:50:46;;;;;;;4.35;2.63;;;;;;;7.14;nan;98953.28;4987621;28;20158;-67
2024/01/18 01:53:13;;;;;;;4.55;2.47;;;;;;;7.06;nan;98931.94;4987200;28;20034;-67
2024/01/18 01:55:39;;;;;;;5.20;2.65;;;;;;;7.12;nan;98950.09;4987099;28;20173;-68
2024/01/18 01:58:05;;;;;;;3.75;2.33;;;;;;;7.03;nan;98936.63;4988627;28;20144;-68
2024/01/18 02:00:32;;;;;;;4.72;2.50;;;;;;;7.11;nan;98951.16;4989411;28;20038;-68
2024/01/18 02:02:58;;;;;;;4.28;2.65;;;;;;;7.08;nan;98937.72;4988899;28;20504;-68
2024/01/18 02:05:23;;;;;;;3.95;2.72;;;;;;;6.85;nan;98905.47;4987367;28;20026;-68
2024/01/18 02:07:49;;;;;;;3.92;2.63;;;;;;;7.09;nan;98934.88;4990441;28;20113;-68
2024/01/18 02:10:15;;;;;;;5.00;2.50;;;;;;;7.11;nan;98929.41;4987356;28;20037;-68
2024/01/18 02:12:41;;;;;;;3.90;2.60;;;;;;;7.10;nan;98930.44;4971545;28;20026;-68
2024/01/18 02:15:08;;;;;;;5.10;2.40;;;;;;;7.07;nan;98920.44;4987934;28;20022;-67
2024/01/18 02:17:34;;;;;;;4.60;2.63;;;;;;;7.12;nan;98936.25;4990625;28;20033;-68
2024/01/18 02:19:59;;;;;;;3.80;2.33;;;;;;;7.11;nan;98938.06;4988310;28;20022;-69
2024/01/18 02:22:28;;;;;;;5.53;2.70;;;;;;;7.11;nan;98932.84;4992492;28;20477;-68
2024/01/18 02:25:16;;;;;;;4.20;2.67;;;;;;;7.09;nan;98927.03;4970297;28;20598;-69
2024/01/18 02:27:41;;;;;;;3.13;2.30;;;;;;;7.13;nan;98933.38;4988311;28;20046;-68
2024/01/18 02:30:07;;;;;;;3.97;2.50;;;;;;;7.14;nan;98934.19;4970257;28;20026;-67
2024/01/18 02:32:32;;;;;;;4.72;2.40;;;;;;;7.14;nan;98931.56;4989926;28;20034;-69
2024/01/18 02:34:58;;;;;;;4.03;2.15;;;;;;;7.14;nan;98934.97;4987625;28;20026;-68
2024/01/18 02:37:23;;;;;;;6.05;2.60;;;;;;;7.13;nan;98925.50;4990756;28;20613;-68
2024/01/18 02:39:51;;;;;;;3.63;2.45;;;;;;;7.09;nan;98915.75;4989556;28;20034;-68
2024/01/18 02:42:16;;;;;;;6.65;2.83;;;;;;;7.12;nan;98916.09;4987889;28;20362;-68
2024/01/18 02:44:44;;;;;;;4.47;2.50;;;;;;;7.15;nan;98910.38;4985959;28;20030;-68
2024/01/18 02:47:09;;;;;;;4.93;2.63;;;;;;;7.15;nan;98892.03;4988660;28;20037;-68
2024/01/18 02:49:38;;;;;;;4.55;2.50;;;;;;;7.10;nan;98880.72;4988767;28;20038;-68
2024/01/18 02:52:04;;;;;;;5.57;2.63;;;;;;;7.15;nan;98883.41;4967444;28;20117;-69
2024/01/18 02:54:30;;;;;;;4.22;2.33;;;;;;;7.20;nan;98870.38;4971915;28;20033;-68
2024/01/18 02:56:55;;;;;;;6.13;2.75;;;;;;;7.19;nan;98874.03;4987538;28;20036;-69
2024/01/18 02:59:21;;;;;;;4.38;2.58;;;;;;;7.19;nan;98872.22;4988588;28;20551;-69
2024/01/18 03:01:46;;;;;;;3.83;2.78;;;;;;;7.21;nan;98874.59;4986191;28;20034;-67
2024/01/18 03:04:12;;;;;;;5.13;2.70;;;;;;;7.24;nan;98868.88;4988159;28;20558;-68
2024/01/18 03:06:37;;;;;;;4.47;2.78;;;;;;;7.26;nan;98869.44;4987740;28;20030;-66
2024/01/18 03:09:02;;;;;;;7.07;2.70;;;;;;;7.24;nan;98867.03;4989921;28;20049;-68
2024/01/18 03:11:28;;;;;;;5.55;2.70;;;;;;;7.27;nan;98873.63;4986170;28;20477;-68
2024/01/18 03:13:53;;;;;;;4.72;2.47;;;;;;;7.22;nan;98866.50;4965574;28;20025;-68
2024/01/18 03:16:19;;;;;;;4.82;2.65;;;;;;;7.20;nan;98857.28;4985041;28;20027;-68
2024/01/18 03:18:46;;;;;;;3.97;2.38;;;;;;;7.31;nan;98868.72;4987894;28;20022;-68
2024/01/18 03:21:12;;;;;;;5.43;2.70;;;;;;;7.21;nan;98851.81;4969805;28;20030;-68
2024/01/18 03:23:37;;;;;;;4.35;2.38;;;;;;;7.27;nan;98857.13;4989038;28;20076;-68
2024/01/18 03:26:03;;;;;;;4.13;2.47;;;;;;;7.36;nan;98864.31;4988892;28;20022;-68
2024/01/18 03:28:28;;;;;;;4.05;2.35;;;;;;;7.34;nan;98855.91;4989117;28;20074;-68
2024/01/18 03:30:53;;;;;;;5.38;2.83;;;;;;;7.38;nan;98854.41;4987698;28;20032;-68
2024/01/18 03:33:19;;;;;;;5.32;2.60;;;;;;;7.39;nan;98845.50;4989892;28;20113;-68
2024/01/18 03:35:45;;;;;;;5.05;2.53;;;;;;;7.40;nan;98848.94;4987064;28;20050;-68
2024/01/18 03:38:11;;;;;;;6.38;2.70;;;;;;;7.43;nan;98859.72;4989963;28;20054;-68
2024/01/18 03:40:37;;;;;;;6.22;3.00;;;;;;;7.44;nan;98856.03;4986950;28;20037;-68
2024/01/18 03:43:03;;;;;;;6.70;2.92;;;;;;;7.37;nan;98844.94;4985753;28;20042;-68
2024/01/18 03:45:29;;;;;;;7.45;2.75;;;;;;;7.45;nan;98844.56;4988010;28;20126;-68
2024/01/18 03:47:54;;;;;;;5.25;3.00;;;;;;;7.39;nan;98832.41;4987578;28;20120;-68
2024/01/18 03:50:19;;;;;;;5.38;2.72;;;;;;;7.50;nan;98843.81;4987598;28;20340;-67
2024/01/18 03:52:45;;;;;;;4.32;2.40;;;;;;;7.54;nan;98844.94;4985889;28;20038;-68
2024/01/18 03:55:11;;;;;;;3.47;2.40;;;;;;;7.58;nan;98847.84;4987335;28;20097;-67
2024/01/18 03:57:37;;;;;;;4.28;2.58;;;;;;;7.61;nan;98847.34;4987557;28;20037;-68
2024/01/18 04:00:04;;;;;;;4.20;2.63;;;;;;;7.61;nan;98844.72;4985454;28;20093;-68
2024/01/18 04:02:30;;;;;;;5.45;2.10;;;;;;;7.63;nan;98845.28;4989303;28;20118;-69
2024/01/18 04:04:55;;;;;;;5.75;2.58;;;;;;;7.64;nan;98849.50;4986208;28;20109;-67
2024/01/18 04:07:22;;;;;;;3.33;2.13;;;;;;;7.61;nan;98834.25;4970725;28;20018;-68
2024/01/18 04:09:47;;;;;;;4.50;2.63;;;;;;;7.72;nan;98848.28;4986532;28;20026;-67
2024/01/18 04:12:13;;;;;;;3.80;2.65;;;;;;;7.65;nan;98825.66;4986276;28;20404;-67
2024/01/18 04:14:40;;;;;;;3.53;2.33;;;;;;;7.72;nan;98835.97;4986496;28;20118;-68
2024/01/18 04:17:06;;;;;;;3.33;2.30;;;;;;;7.76;nan;98836.28;4986669;28;20026;-68
2024/01/18 04:19:31;;;;;;;3.17;2.10;;;;;;;7.77;nan;98836.03;4986075;28;20033;-68
2024/01/18 04:21:57;;;;;;;3.67;2.47;;;;;;;7.70;nan;98824.94;4985970;28;20485;-68
2024/01/18 04:24:22;;;;;;;5.00;2.38;;;;;;;7.74;nan;98831.28;4968512;28;20049;-66
2024/01/18 04:26:49;;;;;;;4.32;1.95;;;;;;;7.73;nan;98824.44;4986425;28;20049;-69
2024/01/18 04:29:15;;;;;;;3.85;2.42;;;;;;;7.71;nan;98828.34;4985334;28;20034;-68
2024/01/18 04:31:40;;;;;;;10.07;2.78;;;;;;;7.75;nan;98832.84;4969677;28;20030;-68
2024/01/18 04:34:05;;;;;;;4.05;2.67;;;;;;;7.71;nan;98826.53;4986510;28;20065;-66
2024/01/18 04:36:31;;;;;;;4.35;2.38;;;;;;;7.70;nan;98814.44;4987380;28;20026;-68
2024/01/18 04:38:56;;;;;;;6.10;2.58;;;;;;;7.79;nan;98833.94;4986937;28;20491;-68
2024/01/18 04:41:21;;;;;;;3.95;2.50;;;;;;;7.77;nan;98825.53;4969105;28;20033;-66
2024/01/18 04:43:47;;;;;;;4.03;2.38;;;;;;;7.79;nan;98820.06;4983955;28;20034;-68
2024/01/18 04:46:12;;;;;;;4.97;2.88;;;;;;;7.73;nan;98810.53;4985293;28;20026;-69
2024/01/18 04:48:38;;;;;;;4.43;2.42;;;;;;;7.74;nan;98812.94;4987758;28;20022;-68
2024/01/18 04:51:04;;;;;;;6.82;2.85;;;;;;;7.77;nan;98822.91;4986109;28;20030;-68
2024/01/18 04:53:29;;;;;;;5.25;2.72;;;;;;;7.50;nan;98775.72;4987126;28;20026;-68
2024/01/18 04:55:55;;;;;;;4.05;2.58;;;;;;;7.70;nan;98811.84;4984761;28;20022;-68
2024/01/18 04:58:21;;;;;;;4.55;2.15;;;;;;;7.77;nan;98812.44;4987195;28;20076;-68
2024/01/18 05:00:46;;;;;;;4.45;2.63;;;;;;;7.73;nan;98811.34;4984777;28;20026;-67
2024/01/18 05:03:12;;;;;;;4.57;2.80;;;;;;;7.55;nan;98778.41;4986869;28;20121;-68
2024/01/18 05:05:37;;;;;;;6.93;2.42;;;;;;;7.78;nan;98813.22;4985618;28;20022;-69
2024/01/18 05:08:03;;;;;;;4.43;2.53;;;;;;;7.82;nan;98817.72;4986090;28;20030;-68
2024/01/18 05:10:29;;;;;;;5.18;2.50;;;;;;;7.82;nan;98814.31;4985612;28;20034;-68
2024/01/18 05:12:54;;;;;;;5.90;2.88;;;;;;;7.58;nan;98782.34;4985873;28;20041;-68
2024/01/18 05:15:20;;;;;;;4.15;2.58;;;;;;;7.83;nan;98818.53;4984701;28;20080;-69
2024/01/18 05:17:47;;;;;;;4.68;2.60;;;;;;;7.80;nan;98822.41;4984409;28;20034;-68
2024/01/18 05:20:12;;;;;;;5.47;2.88;;;;;;;7.57;nan;98786.03;4969447;28;20019;-68
2024/01/18 05:22:38;;;;;;;4.82;2.80;;;;;;;7.82;nan;98816.94;4985458;28;20030;-68
2024/01/18 05:25:05;;;;;;;4.80;2.55;;;;;;;7.77;nan;98819.50;4987142;28;20022;-69
2024/01/18 05:27:30;;;;;;;4.78;2.22;;;;;;;7.72;nan;98820.25;4986352;28;20050;-67
2024/01/18 05:29:59;;;;;;;4.03;2.53;;;;;;;7.49;nan;98775.97;4968423;28;20049;-68
2024/01/18 05:32:26;;;;;;;5.10;2.45;;;;;;;7.72;nan;98817.63;4966804;28;20058;-68
2024/01/18 05:34:52;;;;;;;5.05;2.47;;;;;;;7.74;nan;98814.78;4984453;28;20034;-68
2024/01/18 05:37:18;;;;;;;3.05;2.17;;;;;;;7.59;nan;98802.25;4984326;28;20050;-67
2024/01/18 05:39:44;;;;;;;4.38;2.45;;;;;;;7.69;nan;98820.75;4986253;28;20113;-68
2024/01/18 05:42:10;;;;;;;4.03;2.50;;;;;;;7.54;nan;98787.31;4966970;28;20132;-68
2024/01/18 05:44:35;;;;;;;3.97;2.60;;;;;;;7.63;nan;98809.38;4985103;28;20079;-69
2024/01/18 05:47:01;;;;;;;6.40;2.40;;;;;;;7.60;nan;98820.38;4985165;28;20023;-67
2024/01/18 05:49:27;;;;;;;4.22;2.53;;;;;;;7.54;nan;98817.91;4967693;28;20035;-68
2024/01/18 05:51:52;;;;;;;5.72;3.05;;;;;;;7.59;nan;98825.84;4984066;28;20046;-68
2024/01/18 05:54:18;;;;;;;4.18;2.80;;;;;;;7.57;nan;98818.25;4985220;28;20498;-67
2024/01/18 05:56:46;;;;;;;4.18;2.53;;;;;;;7.56;nan;98813.25;4980371;28;20034;-68
2024/01/18 05:59:11;;;;;;;5.18;2.30;;;;;;;7.46;nan;98788.50;4981674;28;20030;-68
2024/01/18 06:01:37;;;;;;;4.70;2.63;;;;;;;7.55;nan;98803.81;4981852;28;20546;-68
2024/01/18 06:04:02;;;;;;;4.28;2.58;;;;;;;7.45;nan;98786.94;4981945;28;20489;-68
2024/01/18 06:06:28;;;;;;;5.70;2.78;;;;;;;7.48;nan;98775.19;4984504;28;20169;-68
2024/01/18 06:08:53;;;;;;;5.50;2.55;;;;;;;7.55;nan;98782.84;4984446;28;20023;-68
2024/01/18 06:11:19;;;;;;;4.22;2.47;;;;;;;7.62;nan;98794.72;4981511;28;20389;-67
2024/01/18 06:13:44;;;;;;;5.05;2.67;;;;;;;7.66;nan;98801.06;4982619;28;20397;-68
2024/01/18 06:16:11;;;;;;;6.53;2.70;;;;;;;7.63;nan;98787.66;4982759;28;20660;-68
2024/01/18 06:18:37;;;;;;;3.00;2.13;;;;;;;7.72;nan;98793.25;4983974;28;20034;-66
2024/01/18 06:21:10;;;;;;;4.78;2.35;;;;;;;7.71;nan;98787.22;4986334;28;20065;-68
2024/01/18 06:23:36;;;;;;;5.55;2.90;;;;;;;7.79;nan;98791.25;4987519;28;20026;-68
2024/01/18 06:26:02;;;;;;;5.57;2.90;;;;;;;7.80;nan;98790.19;4989491;28;20057;-69
2024/01/18 06:28:28;;;;;;;3.83;2.35;;;;;;;7.82;nan;98782.88;4967253;28;20141;-68
2024/01/18 06:30:54;;;;;;;4.15;2.90;;;;;;;7.87;nan;98781.09;4982451;28;20540;-68
2024/01/18 06:33:19;;;;;;;4.00;2.45;;;;;;;7.93;nan;98783.78;4986028;28;20022;-66
2024/01/18 06:35:45;;;;;;;6.97;2.40;;;;;;;8.00;nan;98787.00;4984017;28;20030;-67
2024/01/18 06:38:12;;;;;;;5.13;2.35;;;;;;;8.08;nan;98778.69;4990735;28;20080;-67
2024/01/18 06:40:37;;;;;;;7.70;2.58;;;;;;;8.04;nan;98767.88;4969489;28;20500;-67
2024/01/18 06:43:03;;;;;;;5.53;2.40;;;;;;;8.05;nan;98769.50;4988420;28;20110;-68
2024/01/18 06:45:29;;;;;;;4.88;2.33;;;;;;;8.15;nan;98768.78;4982761;28;20474;-68
2024/01/18 06:47:54;;;;;;;3.78;2.53;;;;;;;8.14;nan;98761.97;4983223;28;20041;-68
2024/01/18 06:50:21;;;;;;;4.45;2.25;;;;;;;8.24;nan;98766.50;4984487;28;20058;-69
2024/01/18 06:52:46;;;;;;;4.07;2.20;;;;;;;8.35;nan;98776.03;4986276;28;20022;-70
2024/01/18 06:55:12;;;;;;;5.22;2.50;;;;;;;8.40;nan;98777.94;4985045;28;20080;-70
2024/01/18 06:57:37;;;;;;;5.95;2.28;;;;;;;8.45;nan;98773.53;4987790;28;20109;-70
2024/01/18 07:00:03;;;;;;;4.78;2.45;;;;;;;8.43;nan;98766.97;4986882;28;20022;-69
2024/01/18 07:02:29;;;;;;;4.40;2.22;;;;;;;8.50;nan;98780.66;4988732;28;20027;-69
2024/01/18 07:04:55;;;;;;;6.35;2.00;;;;;;;8.45;nan;98767.47;4982076;28;20037;-69
2024/01/18 07:07:20;;;;;;;4.15;2.30;;;;;;;8.48;nan;98767.00;4988083;28;20037;-70
2024/01/18 07:09:46;;;;;;;3.05;1.98;;;;;;;8.52;nan;98775.94;4984900;28;20022;-68
2024/01/18 07:12:11;;;;;;;5.50;2.58;;;;;;;8.47;nan;98768.03;4984007;28;20049;-69
2024/01/18 07:14:36;;;;;;;5.30;2.42;;;;;;;8.51;nan;98767.28;4967629;28;20062;-69
2024/01/18 07:17:02;;;;;;;6.03;2.63;;;;;;;8.51;nan;98766.47;4968448;28;20037;-69
2024/01/18 07:19:27;;;;;;;5.43;2.50;;;;;;;8.50;nan;98770.16;4984620;28;20019;-69
2024/01/18 07:21:53;;;;;;;4.78;2.20;;;;;;;8.52;nan;98770.69;4990044;28;20541;-69
2024/01/18 07:24:22;;;;;;;4.25;2.40;;;;;;;8.50;nan;98760.47;4979697;28;20020;-68
2024/01/18 07:26:48;;;;;;;4.13;2.53;;;;;;;8.44;nan;98750.16;4982942;28;20508;-70
2024/01/18 07:29:13;;;;;;;6.47;2.47;;;;;;;8.43;nan;98754.63;4983833;28;20077;-68
2024/01/18 07:31:39;;;;;;;5.68;2.47;;;;;;;8.43;nan;98748.59;4986196;28;20035;-69
2024/01/18 07:34:04;;;;;;;5.47;2.80;;;;;;;8.47;nan;98758.31;4986471;28;20049;-69
2024/01/18 07:36:30;;;;;;;5.10;2.45;;;;;;;8.36;nan;98743.53;4983435;28;20034;-70
2024/01/18 07:38:56;;;;;;;4.53;2.80;;;;;;;8.44;nan;98750.16;4984553;28;20019;-69
2024/01/18 07:41:22;;;;;;;6.15;2.92;;;;;;;8.41;nan;98742.81;4985007;28;20034;-70
2024/01/18 07:43:48;;;;;;;3.92;2.55;;;;;;;8.41;nan;98743.59;4983347;28;20030;-69
2024/01/18 07:46:13;;;;;;;4.93;2.92;;;;;;;8.39;nan;98740.41;4986205;28;20512;-69
2024/01/18 07:48:39;;;;;;;5.57;2.47;;;;;;;8.37;nan;98718.09;4985028;28;20053;-69
2024/01/18 07:51:04;;;;;;;5.45;2.78;;;;;;;8.40;nan;98728.09;4987859;28;20108;-71
2024/01/18 07:53:29;;;;;;;5.47;2.80;;;;;;;8.42;nan;98734.66;4986293;28;20034;-70
2024/01/18 07:55:55;;;;;;;6.47;3.08;;;;;;;8.46;nan;98734.97;4984428;28;20037;-70
2024/01/18 07:58:20;;;;;;;9.13;3.03;;;;;;;8.48;nan;98736.31;4986011;28;20033;-69
2024/01/18 08:00:46;;;;;;;12.45;2.90;;;;;;;8.46;nan;98737.59;4987134;28;20018;-69
2024/01/18 08:03:11;;;;;;;4.80;2.85;;;;;;;8.42;nan;98712.91;4983543;28;20037;-69
2024/01/18 08:05:37;;;;;;;8.35;2.70;;;;;;;8.47;nan;98732.09;4985500;28;20392;-69
2024/01/18 08:08:02;;;;;;;7.82;3.00;;;;;;;8.52;nan;98739.19;4984565;28;20033;-69
2024/01/18 08:10:28;;;;;;;5.43;2.80;;;;;;;8.49;nan;98721.34;4987182;28;20042;-69
2024/01/18 08:12:53;;;;;;;7.13;2.85;;;;;;;8.56;nan;98731.63;4982146;28;20503;-68
2024/01/18 08:15:19;;;;;;;4.20;2.63;;;;;;;8.57;nan;98731.38;4985946;28;20040;-69
2024/01/18 08:17:44;;;;;;;7.57;2.80;;;;;;;8.60;nan;98737.97;4983722;28;20026;-69
2024/01/18 08:20:13;;;;;;;6.07;3.20;;;;;;;8.62;nan;98741.91;4971400;28;20032;-69
2024/01/18 08:22:41;;;;;;;4.77;2.57;;;;;;;8.42;nan;98707.66;4986502;28;20035;-69
2024/01/18 08:25:08;;;;;;;4.80;2.65;;;;;;;8.66;nan;98735.09;4987240;28;20323;-69
2024/01/18 08:27:34;;;;;;;6.90;3.40;;;;;;;8.71;nan;98747.47;4986635;28;20690;-69
2024/01/18 08:29:59;;;;;;;6.28;3.00;;;;;;;8.77;nan;98745.69;4965185;28;20042;-69
2024/01/18 08:32:31;;;;;;;5.07;2.92;;;;;;;8.78;nan;98736.75;4965993;28;20076;-70
2024/01/18 08:34:57;;;;;;;3.92;2.80;;;;;;;8.81;nan;98736.22;4984720;28;20030;-68
2024/01/18 08:37:23;;;;;;;6.03;3.00;;;;;;;;;;4987366;28;20045;-70
2024/01/18 08:39:48;;;;;;;4.72;3.00;;;;;;;;;;4984131;28;20022;-70
2024/01/18 08:42:13;;;;;;;4.05;2.78;;;;;;;;;;4987671;28;20026;-71
2024/01/18 08:44:45;;;;;;;6.85;2.88;;;;;;;;;;4984927;28;20599;-71
2024/01/18 08:47:10;;;;;;;9.02;3.03;;;;;;;;;;4983416;28;20120;-70
2024/01/18 08:49:36;;;;;;;9.73;3.10;;;;;;;;;;4964178;28;20113;-70
2024/01/18 08:52:01;;;;;;;6.97;3.10;;;;;;;;;;4968936;28;20084;-70
2024/01/18 08:54:26;;;;;;;6.13;3.10;;;;;;;;;;4984868;28;20268;-70
2024/01/18 08:56:51;;;;;;;6.07;2.93;;;;;;;;;;4988086;28;20145;-70
2024/01/18 08:59:17;;;;;;;11.90;4.40;;;;;;;;;;4983922;28;20018;-71
2024/01/18 09:01:42;;;;;;;7.03;3.38;;;;;;;;;;4985289;28;20038;-70
2024/01/18 09:04:07;;;;;;;10.93;4.72;;;;;;;;;;4986542;28;20033;-71
2024/01/18 09:06:33;;;;;;;8.27;4.03;;;;;;;;;;4986212;28;20133;-69
2024/01/18 09:08:58;;;;;;;6.90;3.25;;;;;;;;;;4983570;28;20288;-70
2024/01/18 09:11:23;;;;;;;4.73;2.40;;;;;;;;;;4985092;28;20038;-70
2024/01/18 09:13:49;;;;;;;5.53;2.90;;;;;;;;;;4981575;28;20274;-70
2024/01/18 09:16:16;;;;;;;4.68;2.50;;;;;;;;;;4966413;28;20284;-69
2024/01/18 09:18:42;;;;;;;4.22;2.58;;;;;;;;;;4979051;28;20428;-70
2024/01/18 09:21:07;;;;;;;5.78;2.60;;;;;;;;;;4982659;28;20080;-69
2024/01/18 09:23:32;;;;;;;10.90;3.00;;;;;;;;;;4984479;28;20061;-70
2024/01/18 09:25:57;;;;;;;6.45;3.00;;;;;;;;;;4981772;28;20279;-70
2024/01/18 09:28:23;;;;;;;5.20;2.93;;;;;;;;;;4984984;28;20058;-69
2024/01/18 09:30:48;;;;;;;11.85;3.47;;;;;;;;;;4967185;28;20279;-69
2024/01/18 09:33:13;;;;;;;6.10;2.63;;;;;;;;;;4978521;28;20049;-70
2024/01/18 09:35:40;;;;;;;8.07;2.90;;;;;;;;;;4979127;28;20043;-73
2024/01/18 09:38:05;;;;;;;6.68;2.95;;;;;;;;;;4984385;28;20031;-73
2024/01/18 09:40:31;;;;;;;9.25;2.38;;;;;;;;;;4966887;28;20404;-73
2024/01/18 09:42:59;;;;;;;5.72;2.63;;;;;;;;;;4984644;28;20041;-73
2024/01/18 09:45:26;;;;;;;4.80;3.00;;;;;;;;;;4984177;28;20061;-73
2024/01/18 09:47:53;;;;;;;5.88;2.50;;;;;;;;;;4985613;28;20092;-73
2024/01/18 09:50:19;;;;;;;4.32;2.60;;;;;;;;;;4967826;28;20755;-71
2024/01/18 09:52:45;;;;;;;5.60;3.20;;;;;;;;;;4966409;28;20039;-70
2024/01/18 09:55:11;;;;;;;6.75;2.67;;;;;;;;;;4968829;28;20053;-71
2024/01/18 09:57:41;;;;;;;5.20;2.47;;;;;;;;;;4973710;28;20117;-71
2024/01/18 10:00:08;;;;;;;6.82;2.67;;;;;;;;;;4986384;28;20698;-71
2024/01/18 10:02:34;;;;;;;8.07;2.55;;;;;;;;;;4986275;28;20034;-70
2024/01/18 10:05:02;;;;;;;4.57;2.60;;;;;;;;;;4971644;28;20033;-72
2024/01/18 10:07:27;;;;;;;4.55;2.20;;;;;;;;;;4989753;28;20038;-72
2024/01/18 10:09:53;;;;;;;4.93;2.53;;;;;;;;;;4987868;28;20073;-71
2024/01/18 10:12:18;;;;;;;5.72;2.25;;;;;;;;;;4971578;28;20026;-71
2024/01/18 10:14:44;;;;;;;7.95;2.30;;;;;;;;;;4969769;28;20038;-72
2024/01/18 10:17:19;;;;;;;7.68;2.65;;;;;;;;;;4989498;28;20034;-71
2024/01/18 10:19:45;;;;;;;6.95;2.50;;;;;;;;;;4972195;28;20018;-71
2024/01/18 10:22:10;;;;;;;7.83;2.63;;;;;;;;;;4990663;28;20392;-72
2024/01/18 10:24:39;;;;;;;7.77;2.57;;;;;;;;;;4970755;28;20280;-73
2024/01/18 10:27:05;;;;;;;3.55;2.47;;;;;;;;;;4990762;28;20346;-72
2024/01/18 10:29:37;;;;;;;4.78;2.72;;;;;;;11.11;nan;98735.72;4971525;28;20022;-72
2024/01/18 10:32:04;;;;;;;9.32;2.88;;;;;;;10.65;nan;98647.13;4988591;28;20026;-72
2024/01/18 10:34:38;;;;;;;5.40;2.83;;;;;;;10.74;nan;98656.06;4987870;28;20038;-72
2024/01/18 10:37:05;;;;;;;5.80;2.90;;;;;;;10.75;nan;98644.50;4973843;28;20919;-72
2024/01/18 10:39:41;;;;;;;5.72;2.90;;;;;;;10.79;nan;98645.50;4988124;28;20026;-73
2024/01/18 10:42:08;;;;;;;6.28;3.00;;;;;;;10.84;nan;98645.50;4988368;28;20034;-73
2024/01/18 10:44:49;;;;;;;6.55;2.33;;;;;;;10.82;nan;98631.03;4989135;28;20041;-72
2024/01/18 10:47:15;;;;;;;5.68;2.55;;;;;;;10.98;nan;98642.28;4986264;28;20464;-72
2024/01/18 10:49:43;;;;;;;6.30;3.00;;;;;;;11.03;nan;98637.00;4989999;28;20054;-72
2024/01/18 10:52:11;;;;;;;5.50;2.90;;;;;;;11.10;nan;98632.22;4965773;28;20113;-72
2024/01/18 10:54:37;;;;;;;6.40;2.67;;;;;;;11.05;nan;98605.91;4989465;28;20417;-72
2024/01/18 10:57:03;;;;;;;10.15;2.50;;;;;;;11.14;nan;98614.81;4969373;28;20019;-72
2024/01/18 10:59:30;;;;;;;5.30;2.72;;;;;;;11.29;nan;98630.53;4972514;28;20397;-73
2024/01/18 11:01:59;;;;;;;5.35;2.85;;;;;;;11.39;nan;98627.03;4986743;28;20037;-72
2024/01/18 11:04:26;;;;;;;5.47;2.60;;;;;;;11.43;nan;98620.16;4963149;28;20108;-72
2024/01/18 11:06:53;;;;;;;9.85;2.60;;;;;;;11.40;nan;98612.03;4987570;28;20026;-73
2024/01/18 11:09:19;;;;;;;5.80;2.40;;;;;;;11.50;nan;98601.41;4988691;28;20023;-71
2024/01/18 11:11:46;;;;;;;8.50;2.60;;;;;;;11.65;nan;98611.06;4986038;28;20037;-72
2024/01/18 11:14:12;;;;;;;8.52;2.75;;;;;;;11.70;nan;98603.09;4970481;28;20026;-72
2024/01/18 11:16:41;;;;;;;10.57;2.90;;;;;;;11.80;nan;98610.13;4985043;28;20709;-73
2024/01/18 11:19:06;;;;;;;7.25;2.40;;;;;;;11.80;nan;98610.91;4987643;28;20093;-73
2024/01/18 11:21:42;;;;;;;5.55;2.40;;;;;;;11.88;nan;98610.38;4986780;28;20030;-73
2024/01/18 11:24:08;;;;;;;4.50;2.03;;;;;;;11.85;nan;98596.91;4970419;28;20073;-72
2024/01/18 11:26:34;;;;;;;8.63;2.50;;;;;;;11.89;nan;98595.31;4984493;28;20117;-73
2024/01/18 11:29:19;;;;;;;3.95;2.35;;;;;;;12.00;nan;98604.72;4989925;28;20030;-72
2024/01/18 11:31:51;;;;;;;6.85;2.45;;;;;;;12.00;nan;98581.00;4985766;28;20400;-72
2024/01/18 11:34:30;;;;;;;4.82;2.65;;;;;;;12.06;nan;98590.41;4986778;28;20022;-72
2024/01/18 11:37:14;;;;;;;7.30;2.58;;;;;;;11.97;nan;98576.28;4988452;28;20026;-72
2024/01/18 11:39:51;;;;;;;9.20;3.08;;;;;;;12.11;nan;98595.66;4984792;28;20046;-72
2024/01/18 11:42:28;;;;;;;5.90;2.75;;;;;;;12.07;nan;98578.03;4984646;28;20556;-72
2024/01/18 11:45:15;;;;;;;6.60;2.47;;;;;;;12.16;nan;98586.88;4987293;28;20030;-73
2024/01/18 11:47:41;;;;;;;7.35;2.25;;;;;;;12.18;nan;98581.34;4988380;28;20043;-72
2024/01/18 11:50:09;;;;;;;4.18;2.28;;;;;;;12.12;nan;98560.28;4987090;28;20065;-73
2024/01/18 11:52:39;;;;;;;6.63;2.30;;;;;;;12.13;nan;98561.06;4987047;28;20057;-73
2024/01/18 11:55:05;;;;;;;6.57;2.58;;;;;;;12.15;nan;98560.78;4985605;28;20109;-73
2024/01/18 11:57:34;;;;;;;4.78;2.70;;;;;;;12.23;nan;98558.31;4985252;28;20023;-73
2024/01/18 12:00:00;;;;;;;4.70;2.53;;;;;;;12.13;nan;98546.00;4987109;28;20082;-73
2024/01/18 12:02:28;;;;;;;5.53;2.10;;;;;;;12.23;nan;98558.31;4986575;28;20448;-73
2024/01/18 12:04:55;;;;;;;6.22;2.38;;;;;;;12.21;nan;98549.09;4987075;28;20444;-72
2024/01/18 12:07:21;;;;;;;6.45;3.00;;;;;;;12.21;nan;98552.56;4985232;28;20385;-73
2024/01/18 12:09:47;;;;;;;4.75;2.03;;;;;;;12.25;nan;98556.19;4967884;28;20417;-73
2024/01/18 12:12:13;;;;;;;7.28;2.85;;;;;;;12.27;nan;98554.06;4983515;28;20040;-72
2024/01/18 12:14:43;;;;;;;4.85;2.25;;;;;;;12.29;nan;98557.19;4983456;28;20053;-71